createdAt,value
2023-05-24T00:00:25.141Z,88457.00
2023-05-24T00:01:25.185Z,88457.00
2023-05-24T00:02:25.355Z,88455.00
2023-05-24T00:03:25.370Z,88455.00
2023-05-24T00:04:25.622Z,88455.00
2023-05-24T00:05:25.327Z,88455.00
2023-05-24T00:06:25.355Z,88453.00
2023-05-24T00:07:25.357Z,88457.00
2023-05-24T00:08:25.394Z,88455.00
2023-05-24T00:09:25.399Z,88455.00
2023-05-24T00:10:25.415Z,88455.00
2023-05-24T00:11:25.423Z,88455.00
2023-05-24T00:12:25.471Z,88453.00
2023-05-24T00:13:25.475Z,88451.00
2023-05-24T00:14:25.507Z,88453.00
2023-05-24T00:15:25.523Z,88453.00
2023-05-24T00:16:25.616Z,88453.00
2023-05-24T00:17:25.586Z,88457.00
2023-05-24T00:18:25.570Z,88455.00
2023-05-24T00:19:25.615Z,88459.00
2023-05-24T00:20:25.683Z,88459.00
2023-05-24T00:21:25.648Z,88459.00
2023-05-24T00:22:25.654Z,88457.00
2023-05-24T00:23:25.709Z,88461.00
2023-05-24T00:24:25.709Z,88461.00
2023-05-24T00:25:25.724Z,88461.00
2023-05-24T00:26:25.730Z,88461.00
2023-05-24T00:27:25.761Z,88459.00
2023-05-24T00:28:25.773Z,88461.00
2023-05-24T00:29:25.809Z,88459.00
2023-05-24T00:30:25.809Z,88461.00
2023-05-24T00:31:25.864Z,88461.00
2023-05-24T00:32:25.887Z,88463.00
2023-05-24T00:33:25.898Z,88457.00
2023-05-24T00:34:25.929Z,88463.00
2023-05-24T00:35:25.951Z,88457.00
2023-05-24T00:36:25.990Z,88459.00
2023-05-24T00:37:26.003Z,88459.00
2023-05-24T00:38:26.043Z,88457.00
2023-05-24T00:39:26.064Z,88463.00
2023-05-24T00:40:26.120Z,88457.00
2023-05-24T00:41:26.108Z,88455.00
2023-05-24T00:42:26.132Z,88457.00
2023-05-24T00:43:26.146Z,88457.00
2023-05-24T00:44:26.176Z,88455.00
2023-05-24T00:45:26.206Z,88455.00
2023-05-24T00:46:26.226Z,88455.00
2023-05-24T00:47:26.288Z,88455.00
2023-05-24T00:48:26.234Z,88453.00
2023-05-24T00:49:26.255Z,88455.00
2023-05-24T00:50:26.272Z,88457.00
2023-05-24T00:51:26.314Z,88457.00
2023-05-24T00:52:26.320Z,88457.00
2023-05-24T00:53:26.341Z,88455.00
2023-05-24T00:54:26.349Z,88457.00
2023-05-24T00:55:26.367Z,88453.00
2023-05-24T00:56:26.415Z,88457.00
2023-05-24T00:57:26.418Z,88453.00
2023-05-24T00:58:26.428Z,88451.00
2023-05-24T00:59:26.452Z,88453.00
2023-05-24T01:00:26.489Z,88449.00
2023-05-24T01:01:26.689Z,88451.00
2023-05-24T01:02:26.625Z,88449.00
2023-05-24T01:03:26.681Z,88451.00
2023-05-24T01:04:26.616Z,88447.00
2023-05-24T01:05:26.618Z,88447.00
2023-05-24T01:06:26.652Z,88445.00
2023-05-24T01:07:26.676Z,88447.00
2023-05-24T01:08:26.673Z,88447.00
2023-05-24T01:09:26.699Z,88447.00
2023-05-24T01:10:26.742Z,88445.00
2023-05-24T01:11:26.752Z,88445.00
2023-05-24T01:12:26.774Z,88445.00
2023-05-24T01:13:26.800Z,88443.00
2023-05-24T01:14:26.867Z,88442.00
2023-05-24T01:15:26.843Z,88443.00
2023-05-24T01:16:26.960Z,88443.00
2023-05-24T01:17:26.967Z,88443.00
2023-05-24T01:18:26.888Z,88442.00
2023-05-24T01:19:26.923Z,88442.00
2023-05-24T01:20:27.023Z,88443.00
2023-05-24T01:21:26.975Z,88442.00
2023-05-24T01:22:26.984Z,88443.00
2023-05-24T01:23:27.016Z,88442.00
2023-05-24T01:24:27.052Z,88440.00
2023-05-24T01:25:27.052Z,88438.00
2023-05-24T01:26:27.089Z,88438.00
2023-05-24T01:27:27.085Z,88442.00
2023-05-24T01:28:27.112Z,88442.00
2023-05-24T01:29:27.137Z,88442.00
2023-05-24T01:30:27.159Z,88442.00
2023-05-24T01:31:27.266Z,88442.00
2023-05-24T01:32:27.287Z,88443.00
2023-05-24T01:33:27.282Z,88443.00
2023-05-24T01:34:27.321Z,88438.00
2023-05-24T01:35:27.354Z,88443.00
2023-05-24T01:36:27.415Z,88443.00
2023-05-24T01:37:27.444Z,88440.00
2023-05-24T01:38:27.497Z,88440.00
2023-05-24T01:39:27.526Z,88440.00
2023-05-24T01:40:27.564Z,88440.00
2023-05-24T01:41:27.637Z,88440.00
2023-05-24T01:42:27.705Z,88440.00
2023-05-24T01:43:27.699Z,88436.00
2023-05-24T01:44:27.798Z,88440.00
2023-05-24T01:45:27.812Z,88438.00
2023-05-24T01:46:27.866Z,88438.00
2023-05-24T01:47:27.960Z,88438.00
2023-05-24T01:48:27.921Z,88438.00
2023-05-24T01:49:27.958Z,88440.00
2023-05-24T01:50:28.011Z,88440.00
2023-05-24T01:51:28.067Z,88438.00
2023-05-24T01:52:28.129Z,88442.00
2023-05-24T01:53:28.138Z,88440.00
2023-05-24T01:54:28.175Z,88440.00
2023-05-24T01:55:28.241Z,88438.00
2023-05-24T01:56:28.306Z,88438.00
2023-05-24T01:57:28.401Z,88438.00
2023-05-24T01:58:28.364Z,88438.00
2023-05-24T01:59:28.412Z,88438.00
2023-05-24T02:00:28.441Z,88436.00
2023-05-24T02:01:28.559Z,88434.00
2023-05-24T02:02:28.677Z,88432.00
2023-05-24T02:03:28.665Z,88430.00
2023-05-24T02:04:28.636Z,88428.00
2023-05-24T02:05:28.694Z,88428.00
2023-05-24T02:06:28.753Z,88426.00
2023-05-24T02:07:28.782Z,88426.00
2023-05-24T02:08:28.833Z,88426.00
2023-05-24T02:09:28.885Z,88424.00
2023-05-24T02:10:28.939Z,88424.00
2023-05-24T02:11:28.967Z,88424.00
2023-05-24T02:12:28.961Z,88422.00
2023-05-24T02:13:28.993Z,88422.00
2023-05-24T02:14:29.011Z,88422.00
2023-05-24T02:15:29.033Z,88420.00
2023-05-24T02:16:29.095Z,88422.00
2023-05-24T02:17:29.101Z,88420.00
2023-05-24T02:18:29.113Z,88420.00
2023-05-24T02:19:29.144Z,88420.00
2023-05-24T02:20:29.176Z,88420.00
2023-05-24T02:21:29.205Z,88422.00
2023-05-24T02:22:29.210Z,88420.00
2023-05-24T02:23:29.264Z,88422.00
2023-05-24T02:24:29.284Z,88418.00
2023-05-24T02:25:29.307Z,88418.00
2023-05-24T02:26:29.381Z,88416.00
2023-05-24T02:27:29.395Z,88416.00
2023-05-24T02:28:29.409Z,88416.00
2023-05-24T02:29:29.466Z,88414.00
2023-05-24T02:30:29.523Z,88412.00
2023-05-24T02:31:29.564Z,88412.00
2023-05-24T02:32:29.572Z,88412.00
2023-05-24T02:33:29.558Z,88410.00
2023-05-24T02:34:29.599Z,88410.00
2023-05-24T02:35:29.626Z,88408.00
2023-05-24T02:36:29.666Z,88406.00
2023-05-24T02:37:29.692Z,88408.00
2023-05-24T02:38:29.704Z,88408.00
2023-05-24T02:39:29.750Z,88408.00
2023-05-24T02:40:29.766Z,88406.00
2023-05-24T02:41:29.811Z,88406.00
2023-05-24T02:42:29.851Z,88404.00
2023-05-24T02:43:29.853Z,88404.00
2023-05-24T02:44:29.886Z,88402.00
2023-05-24T02:45:29.906Z,88404.00
2023-05-24T02:46:29.955Z,88404.00
2023-05-24T02:47:29.986Z,88402.00
2023-05-24T02:48:29.987Z,88400.00
2023-05-24T02:49:30.016Z,88400.00
2023-05-24T02:50:30.056Z,88398.00
2023-05-24T02:51:30.090Z,88400.00
2023-05-24T02:52:30.118Z,88400.00
2023-05-24T02:53:30.144Z,88402.00
2023-05-24T02:54:30.163Z,88400.00
2023-05-24T02:55:30.197Z,88402.00
2023-05-24T02:56:30.209Z,88402.00
2023-05-24T02:57:30.241Z,88400.00
2023-05-24T02:58:30.268Z,88400.00
2023-05-24T02:59:30.329Z,88398.00
2023-05-24T03:00:30.404Z,88396.00
2023-05-24T03:01:30.510Z,88398.00
2023-05-24T03:02:30.586Z,88392.00
2023-05-24T03:03:30.747Z,88394.00
2023-05-24T03:04:30.735Z,88392.00
2023-05-24T03:05:30.797Z,88388.00
2023-05-24T03:06:30.888Z,88390.00
2023-05-24T03:07:30.967Z,88388.00
2023-05-24T03:08:31.062Z,88387.00
2023-05-24T03:09:31.136Z,88387.00
2023-05-24T03:10:31.225Z,88387.00
2023-05-24T03:11:31.319Z,88383.00
2023-05-24T03:12:31.402Z,88383.00
2023-05-24T03:13:31.508Z,88385.00
2023-05-24T03:14:31.590Z,88383.00
2023-05-24T03:15:31.688Z,88381.00
2023-05-24T03:16:31.854Z,88383.00
2023-05-24T03:17:31.944Z,88381.00
2023-05-24T03:18:32.005Z,88379.00
2023-05-24T03:19:32.096Z,88381.00
2023-05-24T03:20:32.233Z,88381.00
2023-05-24T03:21:32.286Z,88381.00
2023-05-24T03:22:32.398Z,88379.00
2023-05-24T03:23:32.489Z,88379.00
2023-05-24T03:24:32.592Z,88383.00
2023-05-24T03:25:32.709Z,88383.00
2023-05-24T03:26:32.808Z,88385.00
2023-05-24T03:27:32.894Z,88381.00
2023-05-24T03:28:33.015Z,88387.00
2023-05-24T03:29:33.104Z,88385.00
2023-05-24T03:30:33.194Z,88387.00
2023-05-24T03:31:33.329Z,88385.00
2023-05-24T03:32:33.488Z,88392.00
2023-05-24T03:33:33.521Z,88390.00
2023-05-24T03:34:33.642Z,88394.00
2023-05-24T03:35:33.730Z,88392.00
2023-05-24T03:36:33.792Z,88394.00
2023-05-24T03:37:33.815Z,88392.00
2023-05-24T03:38:33.857Z,88392.00
2023-05-24T03:39:33.904Z,88392.00
2023-05-24T03:40:34.050Z,88394.00
2023-05-24T03:41:33.985Z,88392.00
2023-05-24T03:42:33.990Z,88392.00
2023-05-24T03:43:34.049Z,88394.00
2023-05-24T03:44:34.068Z,88392.00
2023-05-24T03:45:39.202Z,88396.00
2023-05-24T03:46:35.278Z,88392.00
2023-05-24T03:47:34.261Z,88394.00
2023-05-24T03:48:34.269Z,88392.00
2023-05-24T03:49:34.311Z,88392.00
2023-05-24T03:50:34.369Z,88392.00
2023-05-24T03:51:34.391Z,88392.00
2023-05-24T03:52:34.435Z,88392.00
2023-05-24T03:53:34.478Z,88392.00
2023-05-24T03:54:34.522Z,88394.00
2023-05-24T03:55:34.584Z,88394.00
2023-05-24T03:56:34.640Z,88392.00
2023-05-24T03:57:34.631Z,88392.00
2023-05-24T03:58:34.670Z,88392.00
2023-05-24T03:59:34.711Z,88394.00
2023-05-24T04:00:34.750Z,88396.00
2023-05-24T04:01:35.312Z,88396.00
2023-05-24T04:02:34.908Z,88392.00
2023-05-24T04:03:34.932Z,88396.00
2023-05-24T04:04:34.906Z,88396.00
2023-05-24T04:05:34.959Z,88398.00
2023-05-24T04:06:35.017Z,88396.00
2023-05-24T04:07:35.095Z,88396.00
2023-05-24T04:08:35.207Z,88398.00
2023-05-24T04:09:35.314Z,88398.00
2023-05-24T04:10:35.350Z,88400.00
2023-05-24T04:11:35.400Z,88402.00
2023-05-24T04:12:35.429Z,88402.00
2023-05-24T04:13:35.479Z,88402.00
2023-05-24T04:14:35.510Z,88404.00
2023-05-24T04:15:35.552Z,88406.00
2023-05-24T04:16:35.624Z,88404.00
2023-05-24T04:17:35.945Z,88406.00
2023-05-24T04:18:35.766Z,88406.00
2023-05-24T04:19:35.732Z,88408.00
2023-05-24T04:20:35.871Z,88404.00
2023-05-24T04:21:35.801Z,88406.00
2023-05-24T04:22:35.825Z,88406.00
2023-05-24T04:23:35.875Z,88406.00
2023-05-24T04:24:35.936Z,88408.00
2023-05-24T04:25:35.991Z,88406.00
2023-05-24T04:26:36.094Z,88406.00
2023-05-24T04:27:36.182Z,88404.00
2023-05-24T04:28:36.279Z,88406.00
2023-05-24T04:29:36.395Z,88408.00
2023-05-24T04:30:36.507Z,88408.00
2023-05-24T04:31:36.635Z,88410.00
2023-05-24T04:32:36.742Z,88410.00
2023-05-24T04:33:36.812Z,88412.00
2023-05-24T04:34:36.911Z,88410.00
2023-05-24T04:35:36.996Z,88406.00
2023-05-24T04:36:37.134Z,88406.00
2023-05-24T04:37:37.224Z,88408.00
2023-05-24T04:38:37.319Z,88408.00
2023-05-24T04:39:37.424Z,88406.00
2023-05-24T04:40:37.528Z,88408.00
2023-05-24T04:41:37.649Z,88406.00
2023-05-24T04:42:37.740Z,88406.00
2023-05-24T04:43:37.863Z,88408.00
2023-05-24T04:44:37.964Z,88406.00
2023-05-24T04:45:38.078Z,88404.00
2023-05-24T04:46:38.233Z,88404.00
2023-05-24T04:47:38.275Z,88404.00
2023-05-24T04:48:38.260Z,88402.00
2023-05-24T04:49:38.308Z,88402.00
2023-05-24T04:50:38.346Z,88404.00
2023-05-24T04:51:38.527Z,88400.00
2023-05-24T04:52:38.427Z,88402.00
2023-05-24T04:53:38.473Z,88402.00
2023-05-24T04:54:38.524Z,88400.00
2023-05-24T04:55:38.549Z,88398.00
2023-05-24T04:56:38.710Z,88396.00
2023-05-24T04:57:38.690Z,88396.00
2023-05-24T04:58:39.459Z,88396.00
2023-05-24T04:59:38.886Z,88396.00
2023-05-24T05:00:38.984Z,88394.00
2023-05-24T05:01:39.131Z,88396.00
2023-05-24T05:02:39.228Z,88398.00
2023-05-24T05:03:39.351Z,88400.00
2023-05-24T05:04:39.399Z,88396.00
2023-05-24T05:05:39.466Z,88392.00
2023-05-24T05:06:39.572Z,88390.00
2023-05-24T05:07:39.655Z,88390.00
2023-05-24T05:08:39.758Z,88390.00
2023-05-24T05:09:39.837Z,88390.00
2023-05-24T05:10:40.029Z,88387.00
2023-05-24T05:11:40.030Z,88390.00
2023-05-24T05:12:40.099Z,88388.00
2023-05-24T05:13:40.226Z,88385.00
2023-05-24T05:14:40.303Z,88385.00
2023-05-24T05:15:42.209Z,88387.00
2023-05-24T05:16:40.542Z,88385.00
2023-05-24T05:17:40.603Z,88385.00
2023-05-24T05:18:40.602Z,88385.00
2023-05-24T05:19:40.649Z,88387.00
2023-05-24T05:20:40.794Z,88385.00
2023-05-24T05:21:40.727Z,88387.00
2023-05-24T05:22:40.736Z,88390.00
2023-05-24T05:23:40.789Z,88390.00
2023-05-24T05:24:40.812Z,88390.00
2023-05-24T05:25:40.857Z,88388.00
2023-05-24T05:26:40.890Z,88392.00
2023-05-24T05:27:40.934Z,88390.00
2023-05-24T05:28:40.951Z,88392.00
2023-05-24T05:29:40.992Z,88390.00
2023-05-24T05:30:41.184Z,88396.00
2023-05-24T05:31:41.092Z,88392.00
2023-05-24T05:32:41.180Z,88394.00
2023-05-24T05:33:41.227Z,88392.00
2023-05-24T05:34:41.198Z,88392.00
2023-05-24T05:35:41.218Z,88392.00
2023-05-24T05:36:41.267Z,88392.00
2023-05-24T05:37:41.285Z,88392.00
2023-05-24T05:38:41.342Z,88392.00
2023-05-24T05:39:41.394Z,88394.00
2023-05-24T05:40:41.687Z,88392.00
2023-05-24T05:41:42.581Z,88392.00
2023-05-24T05:42:41.800Z,88392.00
2023-05-24T05:43:41.727Z,88392.00
2023-05-24T05:44:41.797Z,88390.00
2023-05-24T05:45:41.905Z,88394.00
2023-05-24T05:46:42.044Z,88392.00
2023-05-24T05:47:42.024Z,88390.00
2023-05-24T05:48:42.925Z,88392.00
2023-05-24T05:49:42.150Z,88390.00
2023-05-24T05:50:42.389Z,88390.00
2023-05-24T05:51:42.270Z,88390.00
2023-05-24T05:52:42.318Z,88390.00
2023-05-24T05:53:42.391Z,88388.00
2023-05-24T05:54:42.495Z,88388.00
2023-05-24T05:55:42.517Z,88390.00
2023-05-24T05:56:42.500Z,88392.00
2023-05-24T05:57:42.529Z,88390.00
2023-05-24T05:58:42.563Z,88390.00
2023-05-24T05:59:42.580Z,88388.00
2023-05-24T06:00:42.842Z,88392.00
2023-05-24T06:01:42.639Z,88390.00
2023-05-24T06:02:42.742Z,88390.00
2023-05-24T06:03:42.772Z,88388.00
2023-05-24T06:04:42.734Z,88388.00
2023-05-24T06:05:42.760Z,88388.00
2023-05-24T06:06:42.774Z,88388.00
2023-05-24T06:07:42.798Z,88387.00
2023-05-24T06:08:42.833Z,88388.00
2023-05-24T06:09:42.849Z,88388.00
2023-05-24T06:10:43.128Z,88388.00
2023-05-24T06:11:42.954Z,88390.00
2023-05-24T06:12:43.022Z,88390.00
2023-05-24T06:13:43.048Z,88390.00
2023-05-24T06:14:43.063Z,88390.00
2023-05-24T06:15:43.183Z,88390.00
2023-05-24T06:16:43.229Z,88392.00
2023-05-24T06:17:43.162Z,88392.00
2023-05-24T06:18:50.139Z,88392.00
2023-05-24T06:19:44.110Z,88396.00
2023-05-24T06:20:43.530Z,88396.00
2023-05-24T06:21:43.266Z,88396.00
2023-05-24T06:22:43.236Z,88396.00
2023-05-24T06:23:43.233Z,88394.00
2023-05-24T06:24:43.289Z,88396.00
2023-05-24T06:25:43.288Z,88398.00
2023-05-24T06:26:43.346Z,88390.00
2023-05-24T06:27:43.380Z,88394.00
2023-05-24T06:28:43.384Z,88394.00
2023-05-24T06:29:43.388Z,88394.00
2023-05-24T06:30:43.681Z,88394.00
2023-05-24T06:31:43.582Z,88392.00
2023-05-24T06:32:43.507Z,88388.00
2023-05-24T06:34:43.568Z,88394.00
2023-05-24T06:35:43.736Z,88394.00
2023-05-24T06:36:43.712Z,88394.00
2023-05-24T06:37:43.824Z,88394.00
2023-05-24T06:38:43.922Z,88394.00
2023-05-24T06:39:44.033Z,88394.00
2023-05-24T06:40:44.286Z,88396.00
2023-05-24T06:41:44.249Z,88394.00
2023-05-24T06:42:44.340Z,88398.00
2023-05-24T06:43:44.438Z,88396.00
2023-05-24T06:44:44.540Z,88398.00
2023-05-24T06:45:44.616Z,88400.00
2023-05-24T06:46:44.744Z,88398.00
2023-05-24T06:47:44.843Z,88400.00
2023-05-24T06:48:45.049Z,88398.00
2023-05-24T06:49:44.904Z,88398.00
2023-05-24T06:50:45.079Z,88396.00
2023-05-24T06:51:45.035Z,88396.00
2023-05-24T06:52:45.106Z,88396.00
2023-05-24T06:53:45.221Z,88398.00
2023-05-24T06:54:45.329Z,88396.00
2023-05-24T06:55:45.482Z,88394.00
2023-05-24T06:56:45.540Z,88390.00
2023-05-24T06:57:45.648Z,88392.00
2023-05-24T06:58:45.761Z,88390.00
2023-05-24T06:59:45.870Z,88388.00
2023-05-24T07:00:46.066Z,88388.00
2023-05-24T07:01:46.239Z,88388.00
2023-05-24T07:02:46.090Z,88388.00
2023-05-24T07:03:46.156Z,88387.00
2023-05-24T07:04:46.343Z,88388.00
2023-05-24T07:05:46.213Z,88390.00
2023-05-24T07:06:46.268Z,88388.00
2023-05-24T07:07:46.329Z,88396.00
2023-05-24T07:08:46.342Z,88392.00
2023-05-24T07:09:46.338Z,88392.00
2023-05-24T07:10:46.416Z,88394.00
2023-05-24T07:11:46.468Z,88394.00
2023-05-24T07:12:46.421Z,88392.00
2023-05-24T07:13:46.476Z,88394.00
2023-05-24T07:14:46.510Z,88394.00
2023-05-24T07:15:46.534Z,88394.00
2023-05-24T07:16:46.757Z,88394.00
2023-05-24T07:17:46.646Z,88394.00
2023-05-24T07:18:46.657Z,88396.00
2023-05-24T07:19:46.667Z,88398.00
2023-05-24T07:20:47.093Z,88396.00
2023-05-24T07:21:46.729Z,88396.00
2023-05-24T07:22:46.735Z,88396.00
2023-05-24T07:23:46.770Z,88394.00
2023-05-24T07:24:46.811Z,88392.00
2023-05-24T07:25:46.852Z,88392.00
2023-05-24T07:26:46.956Z,88390.00
2023-05-24T07:27:47.052Z,88390.00
2023-05-24T07:28:47.013Z,88387.00
2023-05-24T07:29:48.515Z,88387.00
2023-05-24T07:30:47.152Z,88388.00
2023-05-24T07:31:47.137Z,88388.00
2023-05-24T07:32:47.317Z,88388.00
2023-05-24T07:33:47.220Z,88387.00
2023-05-24T07:34:47.235Z,88390.00
2023-05-24T07:35:47.359Z,88390.00
2023-05-24T07:36:47.330Z,88392.00
2023-05-24T07:37:47.568Z,88390.00
2023-05-24T07:38:47.364Z,88388.00
2023-05-24T07:39:47.399Z,88388.00
2023-05-24T07:40:47.391Z,88388.00
2023-05-24T07:41:47.424Z,88385.00
2023-05-24T07:42:47.467Z,88385.00
2023-05-24T07:43:47.443Z,88385.00
2023-05-24T07:44:47.486Z,88381.00
2023-05-24T07:45:47.497Z,88379.00
2023-05-24T07:46:47.612Z,88379.00
2023-05-24T07:47:47.595Z,88379.00
2023-05-24T07:48:47.620Z,88377.00
2023-05-24T07:49:47.596Z,88375.00
2023-05-24T07:50:47.689Z,88375.00
2023-05-24T07:51:47.739Z,88371.00
2023-05-24T07:52:47.714Z,88371.00
2023-05-24T07:53:47.731Z,88375.00
2023-05-24T07:54:47.756Z,88373.00
2023-05-24T07:55:47.808Z,88371.00
2023-05-24T07:56:47.880Z,88373.00
2023-05-24T07:57:47.882Z,88373.00
2023-05-24T07:58:47.910Z,88375.00
2023-05-24T07:59:47.945Z,88371.00
2023-05-24T08:00:48.054Z,88369.00
2023-05-24T08:01:48.165Z,88369.00
2023-05-24T08:02:48.357Z,88369.00
2023-05-24T08:03:48.530Z,88371.00
2023-05-24T08:04:48.374Z,88373.00
2023-05-24T08:05:48.407Z,88371.00
2023-05-24T08:06:48.573Z,88371.00
2023-05-24T08:07:48.501Z,88373.00
2023-05-24T08:08:48.559Z,88371.00
2023-05-24T08:09:48.689Z,88371.00
2023-05-24T08:10:48.685Z,88371.00
2023-05-24T08:11:48.687Z,88371.00
2023-05-24T08:12:48.705Z,88371.00
2023-05-24T08:13:48.787Z,88371.00
2023-05-24T08:14:48.812Z,88369.00
2023-05-24T08:15:48.864Z,88371.00
2023-05-24T08:16:48.934Z,88371.00
2023-05-24T08:17:49.024Z,88369.00
2023-05-24T08:18:48.982Z,88373.00
2023-05-24T08:19:49.034Z,88369.00
2023-05-24T08:20:49.093Z,88369.00
2023-05-24T08:21:49.163Z,88369.00
2023-05-24T08:22:49.168Z,88369.00
2023-05-24T08:23:49.303Z,88371.00
2023-05-24T08:24:49.315Z,88371.00
2023-05-24T08:25:49.356Z,88371.00
2023-05-24T08:26:49.437Z,88371.00
2023-05-24T08:27:49.546Z,88371.00
2023-05-24T08:28:49.537Z,88369.00
2023-05-24T08:29:49.650Z,88369.00
2023-05-24T08:30:49.639Z,88371.00
2023-05-24T08:31:49.785Z,88367.00
2023-05-24T08:32:49.784Z,88371.00
2023-05-24T08:33:49.902Z,88371.00
2023-05-24T08:34:49.880Z,88371.00
2023-05-24T08:35:49.972Z,88373.00
2023-05-24T08:36:50.012Z,88375.00
2023-05-24T08:37:50.125Z,88375.00
2023-05-24T08:38:50.089Z,88375.00
2023-05-24T08:39:50.132Z,88373.00
2023-05-24T08:40:50.226Z,88371.00
2023-05-24T08:42:07.331Z,88369.00
2023-05-24T08:42:51.305Z,88369.00
2023-05-24T08:43:50.349Z,88367.00
2023-05-24T08:44:50.397Z,88369.00
2023-05-24T08:45:50.454Z,88369.00
2023-05-24T08:46:50.508Z,88371.00
2023-05-24T08:47:50.674Z,88373.00
2023-05-24T08:48:50.687Z,88373.00
2023-05-24T08:49:50.623Z,88369.00
2023-05-24T08:50:50.640Z,88369.00
2023-05-24T08:51:50.743Z,88369.00
2023-05-24T08:52:50.742Z,88369.00
2023-05-24T08:53:50.807Z,88369.00
2023-05-24T08:54:50.811Z,88371.00
2023-05-24T08:55:50.907Z,88369.00
2023-05-24T08:56:50.974Z,88367.00
2023-05-24T08:57:51.116Z,88369.00
2023-05-24T08:58:51.180Z,88369.00
2023-05-24T08:59:51.250Z,88369.00
2023-05-24T09:00:51.369Z,88371.00
2023-05-24T09:01:51.457Z,88369.00
2023-05-24T09:02:51.527Z,88367.00
2023-05-24T09:03:51.781Z,88367.00
2023-05-24T09:04:51.643Z,88369.00
2023-05-24T09:05:51.767Z,88369.00
2023-05-24T09:06:51.820Z,88367.00
2023-05-24T09:07:51.908Z,88369.00
2023-05-24T09:08:51.986Z,88369.00
2023-05-24T09:09:52.034Z,88369.00
2023-05-24T09:10:55.631Z,88371.00
2023-05-24T09:11:52.159Z,88371.00
2023-05-24T09:12:52.162Z,88367.00
2023-05-24T09:13:52.218Z,88367.00
2023-05-24T09:14:52.248Z,88367.00
2023-05-24T09:15:52.345Z,88367.00
2023-05-24T09:16:52.298Z,88365.00
2023-05-24T09:17:52.378Z,88365.00
2023-05-24T09:18:52.427Z,88365.00
2023-05-24T09:19:52.440Z,88361.00
2023-05-24T09:20:52.486Z,88365.00
2023-05-24T09:21:52.501Z,88363.00
2023-05-24T09:22:52.492Z,88367.00
2023-05-24T09:23:52.541Z,88365.00
2023-05-24T09:24:52.647Z,88369.00
2023-05-24T09:25:52.686Z,88369.00
2023-05-24T09:26:52.689Z,88367.00
2023-05-24T09:27:52.764Z,88363.00
2023-05-24T09:28:52.762Z,88367.00
2023-05-24T09:29:52.776Z,88367.00
2023-05-24T09:30:52.824Z,88365.00
2023-05-24T09:31:52.968Z,88367.00
2023-05-24T09:32:52.959Z,88365.00
2023-05-24T09:33:52.903Z,88359.00
2023-05-24T09:34:52.946Z,88363.00
2023-05-24T09:35:53.060Z,88361.00
2023-05-24T09:36:53.158Z,88363.00
2023-05-24T09:37:53.232Z,88363.00
2023-05-24T09:38:53.341Z,88363.00
2023-05-24T09:39:53.461Z,88363.00
2023-05-24T09:40:53.560Z,88357.00
2023-05-24T09:41:53.678Z,88359.00
2023-05-24T09:42:53.751Z,88367.00
2023-05-24T09:43:53.905Z,88361.00
2023-05-24T09:44:53.960Z,88363.00
2023-05-24T09:45:54.176Z,88361.00
2023-05-24T09:46:54.091Z,88361.00
2023-05-24T09:47:54.173Z,88365.00
2023-05-24T09:48:54.118Z,88359.00
2023-05-24T09:49:54.176Z,88363.00
2023-05-24T09:50:54.209Z,88361.00
2023-05-24T09:51:54.301Z,88365.00
2023-05-24T09:53:43.477Z,88367.00
2023-05-24T09:54:43.444Z,88371.00
2023-05-24T09:55:43.522Z,88375.00
2023-05-24T09:56:43.431Z,88373.00
2023-05-24T09:57:43.432Z,88375.00
2023-05-24T09:58:43.445Z,88375.00
2023-05-24T09:59:43.415Z,88375.00
2023-05-24T10:00:43.909Z,88377.00
2023-05-24T10:01:43.553Z,88373.00
2023-05-24T10:02:53.129Z,88373.00
2023-05-24T10:03:44.460Z,88373.00
2023-05-24T10:04:43.360Z,88371.00
2023-05-24T10:05:43.314Z,88371.00
2023-05-24T10:06:43.283Z,88369.00
2023-05-24T10:07:43.291Z,88369.00
2023-05-24T10:08:43.301Z,88363.00
2023-05-24T10:09:43.238Z,88363.00
2023-05-24T10:10:43.556Z,88365.00
2023-05-24T10:11:43.254Z,88365.00
2023-05-24T10:12:43.223Z,88365.00
2023-05-24T10:13:43.200Z,88363.00
2023-05-24T10:14:43.162Z,88363.00
2023-05-24T10:15:43.144Z,88363.00
2023-05-24T10:16:43.191Z,88369.00
2023-05-24T10:17:43.184Z,88367.00
2023-05-24T10:18:43.096Z,88369.00
2023-05-24T10:19:43.094Z,88369.00
2023-05-24T10:20:43.486Z,88371.00
2023-05-24T10:21:43.152Z,88373.00
2023-05-24T10:22:43.031Z,88373.00
2023-05-24T10:23:43.019Z,88375.00
2023-05-24T10:24:42.992Z,88379.00
2023-05-24T10:25:42.994Z,88387.00
2023-05-24T10:26:43.028Z,88387.00
2023-05-24T10:27:42.950Z,88387.00
2023-05-24T10:28:42.955Z,88388.00
2023-05-24T10:29:42.923Z,88385.00
2023-05-24T10:30:43.398Z,88385.00
2023-05-24T10:31:43.006Z,88387.00
2023-05-24T10:32:42.957Z,88387.00
2023-05-24T10:33:42.908Z,88387.00
2023-05-24T10:34:42.816Z,88387.00
2023-05-24T10:35:42.862Z,88388.00
2023-05-24T10:36:42.796Z,88385.00
2023-05-24T10:37:42.802Z,88385.00
2023-05-24T10:38:42.834Z,88383.00
2023-05-24T10:39:42.744Z,88383.00
2023-05-24T10:40:42.778Z,88381.00
2023-05-24T10:41:42.693Z,88381.00
2023-05-24T10:42:42.657Z,88379.00
2023-05-24T10:43:43.901Z,88377.00
2023-05-24T10:44:42.605Z,88377.00
2023-05-24T10:45:42.613Z,88375.00
2023-05-24T10:46:42.697Z,88375.00
2023-05-24T10:47:42.536Z,88375.00
2023-05-24T10:48:42.517Z,88373.00
2023-05-24T10:49:42.491Z,88373.00
2023-05-24T10:50:42.897Z,88371.00
2023-05-24T10:51:42.448Z,88373.00
2023-05-24T10:52:42.429Z,88371.00
2023-05-24T10:53:42.433Z,88371.00
2023-05-24T10:54:55.824Z,88371.00
2023-05-24T10:55:43.338Z,88369.00
2023-05-24T10:56:42.351Z,88367.00
2023-05-24T10:57:42.334Z,88365.00
2023-05-24T10:58:42.287Z,88367.00
2023-05-24T10:59:42.301Z,88365.00
2023-05-24T11:00:42.276Z,88365.00
2023-05-24T11:01:42.267Z,88363.00
2023-05-24T11:02:42.265Z,88359.00
2023-05-24T11:03:42.222Z,88359.00
2023-05-24T11:04:42.193Z,88359.00
2023-05-24T11:05:44.327Z,88357.00
2023-05-24T11:06:42.167Z,88355.00
2023-05-24T11:07:42.138Z,88357.00
2023-05-24T11:08:42.149Z,88359.00
2023-05-24T11:09:42.135Z,88359.00
2023-05-24T11:10:42.938Z,88361.00
2023-05-24T11:11:42.109Z,88361.00
2023-05-24T11:12:42.138Z,88365.00
2023-05-24T11:13:42.090Z,88365.00
2023-05-24T11:14:42.060Z,88365.00
2023-05-24T11:15:42.027Z,88367.00
2023-05-24T11:16:42.112Z,88369.00
2023-05-24T11:17:43.549Z,88371.00
2023-05-24T11:18:41.973Z,88369.00
2023-05-24T11:19:41.963Z,88367.00
2023-05-24T11:20:42.366Z,88367.00
2023-05-24T11:21:41.974Z,88367.00
2023-05-24T11:22:41.944Z,88367.00
2023-05-24T11:23:41.935Z,88367.00
2023-05-24T11:24:41.887Z,88369.00
2023-05-24T11:25:41.888Z,88371.00
2023-05-24T11:26:41.909Z,88371.00
2023-05-24T11:27:41.846Z,88369.00
2023-05-24T11:28:41.878Z,88373.00
2023-05-24T11:29:41.806Z,88375.00
2023-05-24T11:30:42.059Z,88373.00
2023-05-24T11:31:44.078Z,88375.00
2023-05-24T11:32:41.815Z,88375.00
2023-05-24T11:33:41.731Z,88373.00
2023-05-24T11:34:41.704Z,88375.00
2023-05-24T11:35:41.682Z,88373.00
2023-05-24T11:36:41.721Z,88373.00
2023-05-24T11:37:46.499Z,88371.00
2023-05-24T11:38:42.628Z,88371.00
2023-05-24T11:39:41.624Z,88371.00
2023-05-24T11:40:41.802Z,88375.00
2023-05-24T11:41:41.588Z,88375.00
2023-05-24T11:42:41.564Z,88375.00
2023-05-24T11:43:41.514Z,88375.00
2023-05-24T11:44:41.499Z,88373.00
2023-05-24T11:45:41.482Z,88371.00
2023-05-24T11:46:41.491Z,88373.00